Time;durP1;ratioP1;P1;durP2;ratioP2;P2;SDS_P1;SDS_P2;PMS_P1;PMS_P2;Temp;Humidity;BMP_temperature;BMP_pressure;BME280_temperature;BME280_humidity;BME280_pressure;Samples;Min_cycle;Max_cycle;Signal;HPM_P1;HPM_P2
2021/03/02 00:00:13;;;;;;;9.82;6.32;;;3.70;99.90;;;;;;5051153;28;20409;-67
2021/03/02 00:02:41;;;;;;;7.72;6.10;;;3.90;99.90;;;;;;5050079;28;20428;-67
2021/03/02 00:05:09;;;;;;;8.80;6.57;;;5.40;99.90;;;;;;5050689;28;20378;-67
2021/03/02 00:07:35;;;;;;;8.83;6.30;;;3.70;99.90;;;;;;5050000;28;21131;-67
2021/03/02 00:10:04;;;;;;;10.67;5.90;;;3.80;99.90;;;;;;5050561;28;20385;-67
2021/03/02 00:12:30;;;;;;;9.35;6.07;;;3.80;99.90;;;;;;5050203;28;20880;-67
2021/03/02 00:14:56;;;;;;;8.50;6.28;;;4.00;99.90;;;;;;5050873;28;20381;-67
2021/03/02 00:17:42;;;;;;;9.03;6.30;;;4.60;99.90;;;;;;5049811;28;20384;-67
2021/03/02 00:20:08;;;;;;;7.63;6.30;;;3.80;99.90;;;;;;5042654;28;20417;-67
2021/03/02 00:22:41;;;;;;;8.07;6.28;;;3.80;99.90;;;;;;5049468;28;20761;-67
2021/03/02 00:25:10;;;;;;;11.45;6.95;;;3.80;99.90;;;;;;5050734;28;20490;-68
2021/03/02 00:27:36;;;;;;;10.25;7.10;;;3.80;99.90;;;;;;5049239;28;20969;-67
2021/03/02 00:30:04;;;;;;;7.55;6.03;;;4.80;99.90;;;;;;5049526;28;20385;-67
2021/03/02 00:32:30;;;;;;;7.82;5.90;;;3.80;99.90;;;;;;5049418;28;20466;-67
2021/03/02 00:34:56;;;;;;;11.65;6.45;;;3.70;99.90;;;;;;5050304;28;20397;-70
2021/03/02 00:37:21;;;;;;;7.00;5.97;;;3.70;99.90;;;;;;5049349;28;20631;-67
2021/03/02 00:39:47;;;;;;;8.60;6.10;;;3.80;99.90;;;;;;5050409;28;20463;-67
2021/03/02 00:42:13;;;;;;;7.07;5.83;;;4.20;99.90;;;;;;5049847;28;20417;-67
2021/03/02 00:44:38;;;;;;;7.77;6.20;;;5.60;99.90;;;;;;5048170;28;20388;-67
2021/03/02 00:47:04;;;;;;;9.20;5.75;;;3.40;99.90;;;;;;5050118;28;20393;-67
2021/03/02 00:49:30;;;;;;;8.43;6.47;;;3.70;99.90;;;;;;5049720;28;20393;-68
2021/03/02 00:51:55;;;;;;;9.15;6.15;;;4.50;99.90;;;;;;5050115;28;20386;-68
2021/03/02 00:54:21;;;;;;;9.65;6.00;;;5.50;99.90;;;;;;5049086;28;20731;-69
2021/03/02 00:56:47;;;;;;;9.07;5.80;;;5.50;99.90;;;;;;5049877;28;20377;-69
2021/03/02 00:59:12;;;;;;;6.63;5.27;;;6.30;99.90;;;;;;5048854;28;20416;-67
2021/03/02 01:01:38;;;;;;;7.63;5.85;;;4.80;99.90;;;;;;5048799;28;20462;-68
2021/03/02 01:04:04;;;;;;;7.57;5.57;;;5.30;99.90;;;;;;5048744;28;20491;-67
2021/03/02 01:06:30;;;;;;;9.20;6.30;;;3.40;99.90;;;;;;5049037;28;20405;-68
2021/03/02 01:08:56;;;;;;;7.80;5.60;;;4.10;99.90;;;;;;5050015;28;20370;-68
2021/03/02 01:11:21;;;;;;;7.28;6.05;;;3.70;99.90;;;;;;5048974;28;20384;-72
2021/03/02 01:13:47;;;;;;;10.02;6.25;;;3.70;99.90;;;;;;5049643;28;20722;-69
2021/03/02 01:16:13;;;;;;;7.88;5.72;;;3.70;99.90;;;;;;5049860;28;20818;-68
2021/03/02 01:18:38;;;;;;;11.27;6.63;;;4.90;99.90;;;;;;5049114;28;20385;-68
2021/03/02 01:21:04;;;;;;;8.40;5.90;;;3.60;99.90;;;;;;5049842;28;20420;-68
2021/03/02 01:23:30;;;;;;;8.13;6.18;;;3.60;99.90;;;;;;5049056;28;20377;-69
2021/03/02 01:25:56;;;;;;;7.63;5.93;;;3.70;99.90;;;;;;5050015;28;20795;-68
2021/03/02 01:28:21;;;;;;;6.68;5.40;;;5.40;99.90;;;;;;5049352;28;20749;-73
2021/03/02 01:30:47;;;;;;;7.37;5.80;;;4.20;99.90;;;;;;5048306;28;20479;-68
2021/03/02 01:33:12;;;;;;;8.00;6.00;;;3.10;99.90;;;;;;5048523;28;20503;-68
2021/03/02 01:35:38;;;;;;;7.33;5.67;;;3.70;99.90;;;;;;5064176;28;20398;-69
2021/03/02 01:38:05;;;;;;;8.47;6.07;;;4.20;99.90;;;;;;5050051;28;20381;-68
2021/03/02 01:40:30;;;;;;;7.72;5.63;;;3.30;99.90;;;;;;5050706;28;20464;-69
2021/03/02 01:42:56;;;;;;;7.97;6.07;;;5.30;99.90;;;;;;5053772;28;20416;-68
2021/03/02 01:45:22;;;;;;;7.50;4.85;;;3.60;99.90;;;;;;5053038;28;20391;-72
2021/03/02 01:47:50;;;;;;;10.13;6.40;;;4.10;99.90;;;;;;5053162;28;20385;-68
2021/03/02 01:50:17;;;;;;;7.90;5.80;;;3.70;99.90;;;;;;5053395;28;20431;-68
2021/03/02 01:52:43;;;;;;;8.63;5.90;;;3.40;99.90;;;;;;5051197;28;20385;-69
2021/03/02 01:55:09;;;;;;;11.03;6.50;;;3.50;99.90;;;;;;5068707;28;20393;-68
2021/03/02 01:57:35;;;;;;;7.43;5.97;;;3.20;99.90;;;;;;5052407;28;20735;-68
2021/03/02 02:00:28;;;;;;;10.40;6.40;;;3.80;99.90;;;;;;5052966;28;20377;-68
2021/03/02 02:03:19;;;;;;;7.25;5.60;;;3.10;99.90;;;;;;5050521;28;20949;-68
2021/03/02 02:05:49;;;;;;;8.27;6.80;;;3.10;99.90;;;;;;5052388;28;20520;-68
2021/03/02 02:08:21;;;;;;;7.72;5.80;;;3.20;99.90;;;;;;5052971;28;20751;-68
2021/03/02 02:11:03;;;;;;;6.53;5.30;;;4.40;99.90;;;;;;5052768;28;20407;-68
2021/03/02 02:13:41;;;;;;;7.60;5.60;;;3.10;99.90;;;;;;5052220;28;20421;-69
2021/03/02 02:16:10;;;;;;;8.90;6.07;;;3.10;99.90;;;;;;5052540;28;20479;-68
2021/03/02 02:18:38;;;;;;;7.75;5.90;;;3.20;99.90;;;;;;5051898;28;20389;-69
2021/03/02 02:21:07;;;;;;;8.07;6.07;;;3.30;99.90;;;;;;5052873;28;20455;-69
2021/03/02 02:23:47;;;;;;;8.20;5.60;;;3.10;99.90;;;;;;5051668;28;20389;-69
2021/03/02 02:26:37;;;;;;;8.50;5.70;;;3.30;99.90;;;;;;5052426;28;20855;-68
2021/03/02 02:29:04;;;;;;;8.85;5.90;;;3.40;99.90;;;;;;5052443;28;20789;-68
2021/03/02 02:31:31;;;;;;;7.65;5.43;;;3.10;99.90;;;;;;5051856;28;20485;-68
2021/03/02 02:33:58;;;;;;;7.43;5.33;;;3.20;99.90;;;;;;5052269;28;20454;-69
2021/03/02 02:36:24;;;;;;;8.65;5.40;;;4.40;99.90;;;;;;5050997;28;20468;-73
2021/03/02 02:38:56;;;;;;;8.48;5.45;;;1.90;99.90;;;;;;5051741;28;20480;-68
2021/03/02 02:41:23;;;;;;;8.15;5.30;;;3.10;99.90;;;;;;5052037;28;20965;-69
2021/03/02 02:43:51;;;;;;;9.30;5.60;;;3.30;99.90;;;;;;5051530;28;20381;-69
2021/03/02 02:46:17;;;;;;;7.90;5.40;;;3.50;99.90;;;;;;5052142;28;20502;-68
2021/03/02 02:48:46;;;;;;;8.45;5.35;;;3.20;99.90;;;;;;5051344;28;20446;-68
2021/03/02 02:51:12;;;;;;;12.18;5.30;;;3.00;99.90;;;;;;5051603;28;20800;-68
2021/03/02 02:53:39;;;;;;;7.20;4.55;;;3.30;99.90;;;;;;5051373;28;20415;-68
2021/03/02 02:56:06;;;;;;;6.22;4.90;;;3.30;99.90;;;;;;5050853;28;20390;-68
2021/03/02 02:58:44;;;;;;;7.72;5.30;;;3.00;99.90;;;;;;5051365;28;20460;-68
2021/03/02 03:01:12;;;;;;;7.10;5.18;;;3.00;99.90;;;;;;5050526;28;20452;-68
2021/03/02 03:03:44;;;;;;;6.93;5.80;;;2.90;99.90;;;;;;5051275;28;20385;-69
2021/03/02 03:06:15;;;;;;;9.45;5.53;;;3.00;99.90;;;;;;5051871;28;20390;-68
2021/03/02 03:08:49;;;;;;;8.88;5.70;;;3.50;99.90;;;;;;5049884;28;20765;-68
2021/03/02 03:11:20;;;;;;;7.05;5.47;;;3.10;99.90;;;;;;5050265;28;20451;-68
2021/03/02 03:13:47;;;;;;;6.43;5.03;;;3.00;99.90;;;;;;5050801;28;20385;-68
2021/03/02 03:16:13;;;;;;;6.70;5.15;;;3.00;99.90;;;;;;5050532;28;20408;-68
2021/03/02 03:18:48;;;;;;;7.25;5.38;;;2.90;99.90;;;;;;5050755;28;20385;-69
2021/03/02 03:21:15;;;;;;;7.10;5.90;;;3.50;99.90;;;;;;5051912;28;20421;-70
2021/03/02 03:23:43;;;;;;;7.40;5.60;;;4.50;99.90;;;;;;5050532;28;20945;-69
2021/03/02 03:26:14;;;;;;;10.95;5.90;;;2.70;99.90;;;;;;5051459;28;20737;-68
2021/03/02 03:28:41;;;;;;;8.48;5.70;;;4.50;99.90;;;;;;5050447;28;20503;-68
2021/03/02 03:31:10;;;;;;;6.30;5.00;;;4.50;99.90;;;;;;5051764;28;20476;-69
2021/03/02 03:33:37;;;;;;;5.63;4.83;;;3.30;99.90;;;;;;5050730;28;20403;-68
2021/03/02 03:36:03;;;;;;;7.80;5.47;;;2.90;99.90;;;;;;5051702;28;20880;-68
2021/03/02 03:38:29;;;;;;;6.50;5.00;;;3.10;99.90;;;;;;5050971;28;20397;-73
2021/03/02 03:40:55;;;;;;;7.50;5.38;;;3.10;99.90;;;;;;5050656;28;20420;-69
2021/03/02 03:43:20;;;;;;;8.00;5.10;;;3.00;99.90;;;;;;5051219;28;20377;-68
2021/03/02 03:45:46;;;;;;;7.00;5.13;;;2.80;99.90;;;;;;5050456;28;20769;-69
2021/03/02 03:48:12;;;;;;;7.90;5.30;;;3.40;99.90;;;;;;5050973;28;20782;-68
2021/03/02 03:50:38;;;;;;;8.98;5.53;;;2.80;99.90;;;;;;5050461;28;20382;-69
2021/03/02 03:53:05;;;;;;;8.20;5.95;;;3.20;99.90;;;;;;5049391;28;20473;-69
2021/03/02 03:55:38;;;;;;;7.30;5.07;;;2.90;99.90;;;;;;5050264;28;20542;-73
2021/03/02 03:58:04;;;;;;;7.72;5.30;;;4.50;99.90;;;;;;5050976;28;20482;-68
2021/03/02 04:00:30;;;;;;;7.63;5.60;;;3.40;99.90;;;;;;5050451;28;20417;-73
2021/03/02 04:02:56;;;;;;;8.98;5.22;;;2.90;99.90;;;;;;5049725;28;20400;-68
2021/03/02 04:05:22;;;;;;;6.18;4.88;;;2.30;99.90;;;;;;5040186;28;20564;-70
2021/03/02 04:07:49;;;;;;;9.43;5.50;;;2.60;99.90;;;;;;5038965;28;21292;-71
2021/03/02 04:10:16;;;;;;;8.70;5.07;;;2.80;99.90;;;;;;5042252;28;20490;-69
2021/03/02 04:12:44;;;;;;;6.82;4.28;;;3.00;99.90;;;;;;5037547;28;20432;-73
2021/03/02 04:15:12;;;;;;;6.43;4.50;;;2.60;99.90;;;;;;5037966;28;20441;-73
2021/03/02 04:17:39;;;;;;;9.30;5.55;;;2.60;99.90;;;;;;5039554;28;20471;-70
2021/03/02 04:20:08;;;;;;;8.90;5.50;;;2.70;99.90;;;;;;5040539;28;20520;-69
2021/03/02 04:22:35;;;;;;;5.60;4.68;;;2.60;99.90;;;;;;5039859;28;20436;-73
2021/03/02 04:25:03;;;;;;;6.63;4.82;;;2.00;99.90;;;;;;5039390;28;20389;-70
2021/03/02 04:27:29;;;;;;;8.77;5.40;;;2.30;99.90;;;;;;5041429;28;20836;-69
2021/03/02 04:29:54;;;;;;;7.13;5.00;;;2.60;99.90;;;;;;5039744;28;20408;-69
2021/03/02 04:32:20;;;;;;;9.40;6.07;;;2.50;99.90;;;;;;5041464;28;20381;-70
2021/03/02 04:34:46;;;;;;;8.63;5.10;;;3.90;99.90;;;;;;5052517;28;20481;-71
2021/03/02 04:37:11;;;;;;;7.13;4.80;;;2.60;99.90;;;;;;5055305;28;21209;-71
2021/03/02 04:39:37;;;;;;;6.05;4.88;;;2.60;99.90;;;;;;5040449;28;20409;-71
2021/03/02 04:42:04;;;;;;;7.83;5.30;;;3.30;99.90;;;;;;5040543;28;20499;-69
2021/03/02 04:44:30;;;;;;;9.03;5.90;;;2.70;99.90;;;;;;5037185;28;20465;-70
2021/03/02 04:46:55;;;;;;;7.53;5.40;;;3.90;99.90;;;;;;5039645;28;20478;-71
2021/03/02 04:49:21;;;;;;;10.23;5.68;;;2.80;99.90;;;;;;5040551;28;20469;-69
2021/03/02 04:51:46;;;;;;;6.10;4.80;;;2.90;99.90;;;;;;5038877;28;20735;-70
2021/03/02 04:54:12;;;;;;;6.60;4.83;;;2.60;99.90;;;;;;5039603;28;20388;-71
2021/03/02 04:56:38;;;;;;;9.50;5.80;;;3.30;99.90;;;;;;5054714;28;20397;-72
2021/03/02 04:59:03;;;;;;;7.47;5.13;;;4.70;99.90;;;;;;5040179;28;20385;-72
2021/03/02 05:01:29;;;;;;;9.03;5.03;;;4.60;99.90;;;;;;5041151;28;20474;-70
2021/03/02 05:03:54;;;;;;;7.20;4.97;;;4.10;99.90;;;;;;5036991;28;20385;-69
2021/03/02 05:06:20;;;;;;;7.70;5.30;;;2.60;99.90;;;;;;5036836;28;20398;-72
2021/03/02 05:08:46;;;;;;;6.57;4.50;;;3.00;99.90;;;;;;5039382;28;20405;-69
2021/03/02 05:11:11;;;;;;;6.90;5.40;;;2.70;99.90;;;;;;5038618;28;21019;-69
2021/03/02 05:13:37;;;;;;;7.70;5.43;;;3.20;99.90;;;;;;5038484;28;20390;-73
2021/03/02 05:16:03;;;;;;;7.72;5.95;;;2.70;99.90;;;;;;5044140;28;20392;-71
2021/03/02 05:18:28;;;;;;;8.02;5.10;;;2.90;99.90;;;;;;5043690;28;20397;-68
2021/03/02 05:20:54;;;;;;;7.13;4.73;;;2.70;99.90;;;;;;5043625;28;20500;-71
2021/03/02 05:23:19;;;;;;;7.03;4.83;;;3.10;99.90;;;;;;5044012;28;20381;-73
2021/03/02 05:25:45;;;;;;;7.70;5.13;;;3.60;99.90;;;;;;5042306;28;20389;-70
2021/03/02 05:28:11;;;;;;;6.50;5.10;;;2.70;99.90;;;;;;5044452;28;20382;-69
2021/03/02 05:30:36;;;;;;;6.43;4.53;;;3.00;99.90;;;;;;5045029;28;20373;-74
2021/03/02 05:33:02;;;;;;;7.25;5.18;;;3.90;99.90;;;;;;5042791;28;20433;-69
2021/03/02 05:35:27;;;;;;;7.30;4.50;;;2.60;99.90;;;;;;5041391;28;20394;-69
2021/03/02 05:37:53;;;;;;;7.05;5.03;;;2.00;99.90;;;;;;5044746;28;21034;-70
2021/03/02 05:40:19;;;;;;;7.80;5.35;;;3.90;99.90;;;;;;5042886;28;21214;-69
2021/03/02 05:42:44;;;;;;;10.57;5.07;;;4.50;99.90;;;;;;5042857;28;20393;-73
2021/03/02 05:45:11;;;;;;;7.70;5.03;;;2.60;99.90;;;;;;5042498;28;20389;-71
2021/03/02 05:47:39;;;;;;;6.80;4.60;;;2.50;99.90;;;;;;5042869;28;20422;-74
2021/03/02 05:50:05;;;;;;;8.40;4.78;;;3.70;99.90;;;;;;5043870;28;20462;-71
2021/03/02 05:52:31;;;;;;;8.33;5.07;;;2.70;99.90;;;;;;5044786;28;20857;-69
2021/03/02 05:54:59;;;;;;;6.18;4.63;;;2.50;99.90;;;;;;5041939;28;20385;-69
2021/03/02 05:57:25;;;;;;;7.60;4.63;;;2.40;99.90;;;;;;5043894;28;20396;-69
2021/03/02 05:59:51;;;;;;;7.50;5.00;;;2.40;99.90;;;;;;5044793;28;20865;-69
2021/03/02 06:02:18;;;;;;;9.67;4.50;;;2.20;99.90;;;;;;5044294;28;20960;-69
2021/03/02 06:04:43;;;;;;;6.45;5.05;;;2.30;99.90;;;;;;5038015;28;20897;-73
2021/03/02 06:07:09;;;;;;;10.60;5.10;;;2.50;99.90;;;;;;5044265;28;20428;-70
2021/03/02 06:09:35;;;;;;;7.10;4.45;;;2.30;99.90;;;;;;5044711;28;20385;-69
2021/03/02 06:12:05;;;;;;;6.40;4.28;;;2.20;99.90;;;;;;5053310;28;20745;-69
2021/03/02 06:14:33;;;;;;;6.67;5.07;;;2.50;99.90;;;;;;5053440;28;20381;-69
2021/03/02 06:16:59;;;;;;;8.43;5.00;;;2.20;99.90;;;;;;5051807;28;20392;-69
2021/03/02 06:19:44;;;;;;;6.50;4.70;;;2.20;99.90;;;;;;5052723;28;20389;-69
2021/03/02 06:22:29;;;;;;;6.63;4.60;;;2.00;99.90;;;;;;5052417;28;20845;-69
2021/03/02 06:24:55;;;;;;;8.57;5.05;;;3.50;99.90;;;;;;5051448;28;20381;-70
2021/03/02 06:27:20;;;;;;;7.15;4.70;;;2.70;99.90;;;;;;5051438;28;20378;-69
2021/03/02 06:30:07;;;;;;;8.00;4.95;;;2.50;99.90;;;;;;5051506;28;20392;-69
2021/03/02 06:32:41;;;;;;;5.97;4.20;;;2.60;99.90;;;;;;5052187;28;20392;-68
2021/03/02 06:35:09;;;;;;;7.32;4.60;;;2.50;99.90;;;;;;5051774;28;20430;-69
2021/03/02 06:37:46;;;;;;;6.82;4.38;;;2.50;99.90;;;;;;5052058;28;20416;-68
2021/03/02 06:40:14;;;;;;;5.80;4.30;;;2.60;99.90;;;;;;5051670;28;20808;-69
2021/03/02 06:42:45;;;;;;;5.28;4.00;;;2.60;99.90;;;;;;5050326;28;20444;-73
2021/03/02 06:45:15;;;;;;;6.33;4.53;;;2.70;99.90;;;;;;5051861;28;20390;-70
2021/03/02 06:47:43;;;;;;;6.90;4.77;;;2.60;99.90;;;;;;5051639;28;20385;-73
2021/03/02 06:50:12;;;;;;;7.32;4.45;;;2.70;99.90;;;;;;5051971;28;20484;-69
2021/03/02 06:52:39;;;;;;;5.25;4.40;;;2.90;99.90;;;;;;5052009;28;20447;-71
2021/03/02 06:55:26;;;;;;;5.60;4.22;;;2.80;99.90;;;;;;5051151;28;20469;-70
2021/03/02 06:57:52;;;;;;;5.72;4.30;;;3.20;99.90;;;;;;5049281;28;20453;-69
2021/03/02 07:00:32;;;;;;;7.57;4.47;;;3.00;99.90;;;;;;5024859;28;20398;-70
2021/03/02 07:02:58;;;;;;;5.95;4.40;;;3.60;99.90;;;;;;5051100;28;20409;-69
2021/03/02 07:05:23;;;;;;;7.50;4.35;;;4.80;99.90;;;;;;5050293;28;20404;-69
2021/03/02 07:07:56;;;;;;;5.50;4.30;;;3.10;99.90;;;;;;5050876;28;20377;-69
2021/03/02 07:10:23;;;;;;;7.90;4.18;;;4.40;99.90;;;;;;5051971;28;20430;-69
2021/03/02 07:12:51;;;;;;;5.07;3.95;;;3.90;99.90;;;;;;5066368;28;20908;-68
2021/03/02 07:15:18;;;;;;;8.25;5.38;;;4.60;99.90;;;;;;5051836;28;20385;-70
2021/03/02 07:17:45;;;;;;;6.00;4.55;;;3.10;99.90;;;;;;5050944;28;20381;-74
2021/03/02 07:20:13;;;;;;;7.03;4.18;;;5.20;99.90;;;;;;5037681;28;20402;-71
2021/03/02 07:22:40;;;;;;;6.45;4.00;;;3.30;99.90;;;;;;5041629;28;20386;-71
2021/03/02 07:25:09;;;;;;;7.18;4.28;;;3.70;99.90;;;;;;5042244;28;20385;-70
2021/03/02 07:27:41;;;;;;;6.10;4.40;;;3.60;99.90;;;;;;5042913;28;20438;-71
2021/03/02 07:30:12;;;;;;;6.28;4.72;;;4.30;99.90;;;;;;5038912;28;20397;-69
2021/03/02 07:32:39;;;;;;;6.18;4.35;;;3.80;99.90;;;;;;5027879;28;20500;-72
2021/03/02 07:35:08;;;;;;;5.55;3.85;;;4.40;99.90;;;;;;5035626;28;20382;-71
2021/03/02 07:37:34;;;;;;;6.78;4.43;;;3.80;99.90;;;;;;5039419;28;20452;-68
2021/03/02 07:40:10;;;;;;;5.50;4.00;;;3.80;99.90;;;;;;5018151;28;20521;-70
2021/03/02 07:42:37;;;;;;;5.43;4.20;;;4.00;99.90;;;;;;5037480;28;21603;-71
2021/03/02 07:45:15;;;;;;;8.07;4.80;;;4.00;99.90;;;;;;5035105;28;22004;-71
2021/03/02 07:47:46;;;;;;;4.70;3.90;;;4.30;99.90;;;;;;5038812;28;20480;-73
2021/03/02 07:50:24;;;;;;;6.60;4.30;;;4.00;99.90;;;;;;5032654;28;20401;-72
2021/03/02 07:53:22;;;;;;;5.03;3.72;;;4.70;99.90;;;;;;5038084;28;20477;-69
2021/03/02 07:56:08;;;;;;;6.88;4.10;;;4.90;99.90;;;;;;5048569;28;21025;-70
2021/03/02 07:58:34;;;;;;;7.85;4.55;;;4.40;99.90;;;;;;5036908;28;20388;-69
2021/03/02 08:01:18;;;;;;;4.65;4.00;;;5.00;99.90;;;;;;5038520;28;20409;-69
2021/03/02 08:03:44;;;;;;;6.82;3.80;;;6.10;99.90;;;;;;5041368;28;20409;-73
2021/03/02 08:06:22;;;;;;;5.63;4.50;;;4.80;99.90;;;;;;5035110;28;20397;-70
2021/03/02 08:08:49;;;;;;;5.68;4.40;;;4.90;99.90;;;;;;5031212;28;20405;-73
2021/03/02 08:11:34;;;;;;;5.32;3.83;;;4.90;99.90;;;;;;5039136;28;20885;-69
2021/03/02 08:14:21;;;;;;;5.70;4.00;;;6.60;99.90;;;;;;5037378;28;20464;-70
2021/03/02 08:17:03;;;;;;;6.55;4.07;;;6.40;99.90;;;;;;5035434;28;20386;-70
2021/03/02 08:19:49;;;;;;;5.47;4.10;;;5.70;99.80;;;;;;5033138;28;20786;-70
2021/03/02 08:22:18;;;;;;;3.97;3.40;;;5.70;99.90;;;;;;5035848;28;20999;-70
2021/03/02 08:24:59;;;;;;;5.70;3.75;;;5.70;99.90;;;;;;5039324;28;20497;-72
2021/03/02 08:27:49;;;;;;;5.65;3.70;;;5.90;99.90;;;;;;5039867;28;20731;-68
2021/03/02 08:30:37;;;;;;;5.07;3.60;;;6.00;98.40;;;;;;5039512;28;20474;-69
2021/03/02 08:33:05;;;;;;;7.50;4.00;;;6.20;96.70;;;;;;5042661;28;20888;-70
2021/03/02 08:35:37;;;;;;;7.53;4.40;;;6.60;98.80;;;;;;5048624;28;20465;-69
2021/03/02 08:38:05;;;;;;;4.43;3.88;;;7.60;99.90;;;;;;5048583;28;20545;-68
2021/03/02 08:40:31;;;;;;;5.32;3.80;;;6.70;97.80;;;;;;5049974;28;20449;-69
2021/03/02 08:43:07;;;;;;;5.13;4.07;;;6.80;97.00;;;;;;5048506;28;20432;-69
2021/03/02 08:46:00;;;;;;;6.13;4.57;;;6.60;95.70;;;;;;5033768;28;20878;-69
2021/03/02 08:48:26;;;;;;;7.07;5.10;;;6.90;99.00;;;;;;5047901;28;20392;-69
2021/03/02 08:51:02;;;;;;;8.83;5.90;;;7.40;97.00;;;;;;5048143;28;20495;-70
2021/03/02 08:53:30;;;;;;;7.30;4.80;;;7.50;98.50;;;;;;5049000;28;20404;-69
2021/03/02 08:55:57;;;;;;;8.75;5.32;;;7.70;96.00;;;;;;5048722;28;20460;-70
2021/03/02 08:58:29;;;;;;;8.00;5.97;;;8.40;96.00;;;;;;5064497;28;20390;-70
2021/03/02 09:01:00;;;;;;;8.90;6.03;;;8.30;99.90;;;;;;5045663;28;20421;-71
2021/03/02 09:03:26;;;;;;;9.48;5.68;;;7.60;98.00;;;;;;5045660;28;20401;-70
2021/03/02 09:06:08;;;;;;;7.40;6.20;;;8.00;99.30;;;;;;5047150;28;20385;-70
2021/03/02 09:09:01;;;;;;;11.13;6.60;;;7.90;95.50;;;;;;5049407;28;20412;-69
2021/03/02 09:11:35;;;;;;;10.70;5.90;;;7.90;92.80;;;;;;5047187;28;20458;-70
2021/03/02 09:14:04;;;;;;;8.85;6.22;;;8.30;99.80;;;;;;5048470;28;20389;-69
2021/03/02 09:16:34;;;;;;;11.43;6.77;;;8.20;95.20;;;;;;5064168;28;20386;-70
2021/03/02 09:19:03;;;;;;;12.43;6.80;;;8.40;92.90;;;;;;5048967;28;20715;-69
2021/03/02 09:21:29;;;;;;;10.98;7.20;;;8.20;95.10;;;;;;5049769;28;20805;-70
2021/03/02 09:23:56;;;;;;;11.43;6.95;;;8.80;99.40;;;;;;5047690;28;20749;-69
2021/03/02 09:26:24;;;;;;;8.70;6.40;;;8.90;99.30;;;;;;5050215;28;20432;-69
2021/03/02 09:28:55;;;;;;;9.57;6.95;;;8.90;99.40;;;;;;5049269;28;20385;-69
2021/03/02 09:31:22;;;;;;;11.48;7.60;;;8.60;92.00;;;;;;5050179;28;20439;-69
2021/03/02 09:33:51;;;;;;;9.40;6.88;;;9.30;95.20;;;;;;5049520;28;20389;-73
2021/03/02 09:36:18;;;;;;;8.52;6.72;;;10.40;94.10;;;;;;5047455;28;20826;-70
2021/03/02 09:38:46;;;;;;;10.27;7.60;;;9.10;97.50;;;;;;5045895;28;20390;-70
2021/03/02 09:41:12;;;;;;;9.73;7.07;;;9.00;96.00;;;;;;5048631;28;20595;-69
2021/03/02 09:43:40;;;;;;;11.52;7.00;;;10.00;96.70;;;;;;5050014;28;20742;-70
2021/03/02 09:46:06;;;;;;;10.95;7.00;;;9.80;93.50;;;;;;5049374;28;20388;-69
2021/03/02 09:48:47;;;;;;;18.63;7.35;;;9.80;93.30;;;;;;5047773;28;20394;-69
2021/03/02 09:51:33;;;;;;;13.40;7.40;;;9.60;92.60;;;;;;5047170;28;20897;-69
2021/03/02 09:54:18;;;;;;;11.87;7.57;;;9.90;92.70;;;;;;5048414;28;20385;-68
2021/03/02 09:56:58;;;;;;;13.25;7.43;;;9.80;90.80;;;;;;5049332;28;20388;-68
2021/03/02 09:59:25;;;;;;;11.20;7.53;;;9.70;93.90;;;;;;5049447;28;20382;-68
2021/03/02 10:01:51;;;;;;;12.00;7.30;;;9.70;95.90;;;;;;5051744;28;20428;-68
2021/03/02 10:04:18;;;;;;;10.25;7.43;;;10.60;95.70;;;;;;5053914;28;20393;-67
2021/03/02 10:06:45;;;;;;;9.85;7.20;;;11.00;92.30;;;;;;5053254;28;20937;-68
2021/03/02 10:09:24;;;;;;;11.27;7.38;;;10.60;95.40;;;;;;5053084;28;20858;-69
2021/03/02 10:12:09;;;;;;;15.47;7.97;;;10.30;90.20;;;;;;5053189;28;20421;-69
2021/03/02 10:14:36;;;;;;;15.48;7.35;;;10.20;88.80;;;;;;5053773;28;20718;-69
2021/03/02 10:17:02;;;;;;;12.90;7.65;;;10.50;88.90;;;;;;5052948;28;20385;-69
2021/03/02 10:19:30;;;;;;;10.73;7.00;;;10.20;85.60;;;;;;5053460;28;20773;-69
2021/03/02 10:21:59;;;;;;;11.23;7.50;;;10.40;88.90;;;;;;5051824;28;20429;-70
2021/03/02 10:24:42;;;;;;;11.25;7.43;;;10.50;81.30;;;;;;5050507;28;20704;-70
2021/03/02 10:27:18;;;;;;;10.80;7.40;;;10.50;80.70;;;;;;5052074;28;20870;-70
2021/03/02 10:29:45;;;;;;;10.90;8.50;;;11.10;92.90;;;;;;5052920;28;20393;-70
2021/03/02 10:32:11;;;;;;;10.93;7.90;;;11.10;87.00;;;;;;5051859;28;20413;-70
2021/03/02 10:34:38;;;;;;;13.13;8.40;;;11.10;86.30;;;;;;5051580;28;20377;-70
2021/03/02 10:37:05;;;;;;;13.35;7.97;;;11.10;92.20;;;;;;5052020;28;20396;-71
2021/03/02 10:39:32;;;;;;;10.95;8.27;;;11.60;85.90;;;;;;5051367;28;20540;-70
2021/03/02 10:41:59;;;;;;;12.00;8.27;;;11.40;84.20;;;;;;5051813;28;20508;-70
2021/03/02 10:44:24;;;;;;;11.48;7.13;;;11.90;84.70;;;;;;5052287;28;20377;-70
2021/03/02 10:46:50;;;;;;;9.18;7.25;;;12.10;90.10;;;;;;5050969;28;20470;-75
2021/03/02 10:49:16;;;;;;;13.60;8.45;;;11.30;81.70;;;;;;5052420;28;20428;-70
2021/03/02 10:51:42;;;;;;;14.40;7.72;;;12.00;82.10;;;;;;5052735;28;20868;-70
2021/03/02 10:54:08;;;;;;;11.55;7.88;;;12.00;86.30;;;;;;5052218;28;20384;-68
2021/03/02 10:56:34;;;;;;;15.70;8.03;;;12.20;87.70;;;;;;5052830;28;20385;-70
2021/03/02 10:59:00;;;;;;;16.40;7.45;;;12.40;79.40;;;;;;5051368;28;20382;-70
2021/03/02 11:01:26;;;;;;;13.40;8.43;;;12.30;77.80;;;;;;5052657;28;20409;-70
2021/03/02 11:03:53;;;;;;;12.43;8.10;;;12.60;79.30;;;;;;5051675;28;20468;-70
2021/03/02 11:06:26;;;;;;;10.73;7.72;;;12.70;82.60;;;;;;5052160;28;20411;-70
2021/03/02 11:08:52;;;;;;;11.77;7.45;;;12.70;74.20;;;;;;5051641;28;20416;-72
2021/03/02 11:11:20;;;;;;;16.17;9.27;;;12.50;81.80;;;;;;5052497;28;20408;-70
2021/03/02 11:13:46;;;;;;;15.23;7.85;;;12.90;74.80;;;;;;5051653;28;20417;-70
2021/03/02 11:16:12;;;;;;;12.10;7.30;;;13.40;72.00;;;;;;5051098;28;20866;-70
2021/03/02 11:18:39;;;;;;;12.93;8.50;;;13.50;70.90;;;;;;5052055;28;20431;-70
2021/03/02 11:21:05;;;;;;;12.52;7.30;;;14.10;80.90;;;;;;5051079;28;20462;-70
2021/03/02 11:23:31;;;;;;;10.80;7.10;;;14.10;80.30;;;;;;5051874;28;20385;-70
2021/03/02 11:25:57;;;;;;;12.50;7.40;;;14.30;71.70;;;;;;5051128;28;20850;-68
2021/03/02 11:28:23;;;;;;;13.43;7.25;;;14.30;68.20;;;;;;5050871;28;20924;-70
2021/03/02 11:30:48;;;;;;;10.73;7.05;;;14.40;75.10;;;;;;5051930;28;20468;-70
2021/03/02 11:33:14;;;;;;;11.52;7.10;;;14.40;65.60;;;;;;5032362;28;20586;-71
2021/03/02 11:35:44;;;;;;;12.38;6.97;;;15.70;62.40;;;;;;5047383;28;20382;-70
2021/03/02 11:38:10;;;;;;;10.75;6.60;;;16.30;60.70;;;;;;5047326;28;20385;-71
2021/03/02 11:40:36;;;;;;;9.57;6.70;;;17.00;67.60;;;;;;5047018;28;20820;-74
2021/03/02 11:43:03;;;;;;;8.57;5.93;;;17.40;64.80;;;;;;5045010;28;20381;-70
2021/03/02 11:45:30;;;;;;;10.25;6.68;;;17.80;56.00;;;;;;5048343;28;20408;-71
2021/03/02 11:47:58;;;;;;;9.85;6.65;;;18.30;54.50;;;;;;5047553;28;20384;-71
2021/03/02 11:50:24;;;;;;;11.47;6.20;;;18.70;55.10;;;;;;5046525;28;20389;-70
2021/03/02 11:52:50;;;;;;;8.73;6.80;;;18.90;53.50;;;;;;5044214;28;20390;-69
2021/03/02 11:55:17;;;;;;;8.93;5.90;;;18.00;53.10;;;;;;5046211;28;20385;-71
2021/03/02 11:57:43;;;;;;;8.77;5.95;;;18.50;50.10;;;;;;5046961;28;20416;-69
2021/03/02 12:00:13;;;;;;;14.57;6.47;;;18.90;55.50;;;;;;5046207;28;20456;-69
2021/03/02 12:02:39;;;;;;;8.93;6.25;;;19.30;51.00;;;;;;5044787;28;20422;-69
2021/03/02 12:05:06;;;;;;;11.40;7.10;;;19.80;51.20;;;;;;5046439;28;20468;-70
2021/03/02 12:07:32;;;;;;;9.90;6.25;;;19.50;48.40;;;;;;5047091;28;20467;-69
2021/03/02 12:09:57;;;;;;;9.98;6.93;;;19.30;50.00;;;;;;5046390;28;20886;-72
2021/03/02 12:12:23;;;;;;;10.32;5.38;;;19.70;57.20;;;;;;5044665;28;20400;-70
2021/03/02 12:14:49;;;;;;;11.53;6.43;;;20.40;48.00;;;;;;5047801;28;20452;-69
2021/03/02 12:17:15;;;;;;;9.55;6.22;;;19.20;54.80;;;;;;5047456;28;21008;-70
2021/03/02 12:19:41;;;;;;;8.68;5.90;;;20.80;47.10;;;;;;5047349;28;20378;-69
2021/03/02 12:22:06;;;;;;;9.67;6.60;;;19.80;49.40;;;;;;5045157;28;20471;-69
2021/03/02 12:24:32;;;;;;;8.13;5.90;;;19.70;46.20;;;;;;5046819;28;20491;-69
2021/03/02 12:26:58;;;;;;;9.77;6.30;;;20.80;46.50;;;;;;5045414;28;20464;-70
2021/03/02 12:29:24;;;;;;;10.68;6.90;;;19.80;51.30;;;;;;5045616;28;20374;-69
2021/03/02 12:31:50;;;;;;;10.60;6.47;;;19.90;45.90;;;;;;5046657;28;20727;-70
2021/03/02 12:34:16;;;;;;;10.48;6.03;;;19.20;47.60;;;;;;5044711;28;20394;-69
2021/03/02 12:36:42;;;;;;;9.60;6.33;;;19.50;46.20;;;;;;5045964;28;20750;-69
2021/03/02 12:39:08;;;;;;;10.98;6.80;;;20.40;45.30;;;;;;5044801;28;20413;-69
2021/03/02 12:41:35;;;;;;;10.90;6.70;;;19.70;51.40;;;;;;5047271;28;20405;-70
2021/03/02 12:44:02;;;;;;;11.20;6.57;;;20.00;45.40;;;;;;5044088;28;20392;-71
2021/03/02 12:46:27;;;;;;;8.98;6.60;;;20.40;52.10;;;;;;5047622;28;20456;-69
2021/03/02 12:48:53;;;;;;;9.33;6.77;;;20.40;44.80;;;;;;5046628;28;20480;-73
2021/03/02 12:51:19;;;;;;;12.30;6.72;;;20.20;51.60;;;;;;5047584;28;21129;-68
2021/03/02 12:53:46;;;;;;;10.45;7.20;;;20.00;44.40;;;;;;5044301;28;20382;-68
2021/03/02 12:56:12;;;;;;;8.03;5.80;;;20.20;44.20;;;;;;5045391;28;20373;-69
2021/03/02 12:58:38;;;;;;;9.20;5.88;;;20.90;47.20;;;;;;5047122;28;20388;-69
2021/03/02 13:01:04;;;;;;;9.55;5.95;;;21.10;41.90;;;;;;5045738;28;20417;-68